createdAt,value
2023-03-15T00:02:11.078Z,7.30
2023-03-15T00:04:39.123Z,6.60
2023-03-15T00:07:07.042Z,6.90
2023-03-15T00:09:35.281Z,7.60
2023-03-15T00:12:07.376Z,6.70
2023-03-15T00:14:36.837Z,6.90
2023-03-15T00:17:04.811Z,7.20
2023-03-15T00:19:40.808Z,7.50
2023-03-15T00:22:09.038Z,7.60
2023-03-15T00:24:37.101Z,6.50
2023-03-15T00:27:06.193Z,6.50
2023-03-15T00:29:34.109Z,6.20
2023-03-15T00:32:02.176Z,6.40
2023-03-15T00:34:32.168Z,6.40
2023-03-15T00:37:00.265Z,6.50
2023-03-15T00:39:28.550Z,6.50
2023-03-15T00:41:59.772Z,7.00
2023-03-15T00:44:28.256Z,6.70
2023-03-15T00:46:56.344Z,6.40
2023-03-15T00:49:24.400Z,6.50
2023-03-15T00:51:54.962Z,7.50
2023-03-15T00:54:24.021Z,6.40
2023-03-15T00:56:52.313Z,6.80
2023-03-15T00:59:22.220Z,6.70
2023-03-15T01:01:51.785Z,6.50
2023-03-15T01:04:21.192Z,6.00
2023-03-15T01:06:49.555Z,6.00
2023-03-15T01:09:17.582Z,5.80
2023-03-15T01:11:47.435Z,5.90
2023-03-15T01:14:18.942Z,6.40
2023-03-15T01:16:48.400Z,5.90
2023-03-15T01:19:16.326Z,5.80
2023-03-15T01:21:47.997Z,6.70
2023-03-15T01:24:18.507Z,6.50
2023-03-15T01:26:47.029Z,6.40
2023-03-15T01:29:18.042Z,7.00
2023-03-15T01:31:46.018Z,5.70
2023-03-15T01:34:13.987Z,5.80
2023-03-15T01:36:41.919Z,5.40
2023-03-15T01:39:09.893Z,5.90
2023-03-15T01:41:44.188Z,6.10
2023-03-15T01:44:16.061Z,6.30
2023-03-15T01:46:45.125Z,6.40
2023-03-15T01:49:18.086Z,6.20
2023-03-15T01:51:47.626Z,6.90
2023-03-15T01:54:15.726Z,7.10
2023-03-15T01:56:58.008Z,6.30
2023-03-15T01:59:30.847Z,6.90
2023-03-15T02:01:59.001Z,6.00
2023-03-15T02:04:54.105Z,6.80
2023-03-15T02:07:22.503Z,5.90
2023-03-15T02:09:52.242Z,6.70
2023-03-15T02:12:20.783Z,6.20
2023-03-15T02:14:50.734Z,7.30
2023-03-15T02:17:20.054Z,6.80
2023-03-15T02:19:51.510Z,7.60
2023-03-15T02:22:25.613Z,6.60
2023-03-15T02:25:06.122Z,7.50
2023-03-15T02:27:34.676Z,7.40
2023-03-15T02:30:05.943Z,7.00
2023-03-15T02:32:34.285Z,6.30
2023-03-15T02:35:03.051Z,7.20
2023-03-15T02:37:31.654Z,6.80
2023-03-15T02:39:59.603Z,7.30
2023-03-15T02:42:27.980Z,7.00
2023-03-15T02:44:58.206Z,6.90
2023-03-15T02:47:27.778Z,7.00
2023-03-15T02:49:57.112Z,8.00
2023-03-15T02:52:26.587Z,7.40
2023-03-15T02:54:54.641Z,7.70
2023-03-15T02:57:22.613Z,6.70
2023-03-15T02:59:51.184Z,6.70
2023-03-15T03:02:22.194Z,6.60
2023-03-15T03:04:50.168Z,7.40
2023-03-15T03:07:19.517Z,7.10
2023-03-15T03:09:57.739Z,7.10
2023-03-15T03:12:27.148Z,7.80
2023-03-15T03:15:02.823Z,6.90
2023-03-15T03:17:37.463Z,7.80
2023-03-15T03:20:08.286Z,7.80
2023-03-15T03:22:37.329Z,8.30
2023-03-15T03:25:07.470Z,8.00
2023-03-15T03:27:40.662Z,7.10
2023-03-15T03:30:11.594Z,7.90
2023-03-15T03:32:41.372Z,8.00
2023-03-15T03:35:09.394Z,8.60
2023-03-15T03:37:37.576Z,8.10
2023-03-15T03:40:14.574Z,8.00
2023-03-15T03:42:42.936Z,8.00
2023-03-15T03:45:11.139Z,10.20
2023-03-15T03:47:44.732Z,7.70
2023-03-15T03:50:12.767Z,8.20
2023-03-15T03:52:46.861Z,8.10
2023-03-15T03:55:25.319Z,8.10
2023-03-15T03:57:54.391Z,8.10
2023-03-15T04:00:40.296Z,8.10
2023-03-15T04:03:08.564Z,8.40
2023-03-15T04:05:38.572Z,10.40
2023-03-15T04:08:06.627Z,7.70
2023-03-15T04:10:39.851Z,7.50
2023-03-15T04:13:08.826Z,7.70
2023-03-15T04:15:36.770Z,7.70
2023-03-15T04:18:08.789Z,7.50
2023-03-15T04:20:46.886Z,8.00
2023-03-15T04:23:15.856Z,8.10
2023-03-15T04:26:14.822Z,8.30
2023-03-15T04:29:11.362Z,8.10
2023-03-15T04:32:18.077Z,7.90
2023-03-15T04:34:52.452Z,7.30
2023-03-15T04:37:43.872Z,7.80
2023-03-15T04:40:24.241Z,7.30
2023-03-15T04:42:58.745Z,7.90
2023-03-15T04:45:41.776Z,8.30
2023-03-15T04:48:28.485Z,9.10
2023-03-15T04:51:18.924Z,8.70
2023-03-15T04:53:54.636Z,7.60
2023-03-15T04:56:45.320Z,8.60
2023-03-15T04:59:27.716Z,8.40
2023-03-15T05:02:27.956Z,7.90
2023-03-15T05:05:19.151Z,7.50
2023-03-15T05:08:07.587Z,8.00
2023-03-15T05:10:59.154Z,7.90
2023-03-15T05:13:46.441Z,7.70
2023-03-15T05:16:34.747Z,8.60
2023-03-15T05:19:21.959Z,8.40
2023-03-15T05:22:08.109Z,8.40
2023-03-15T05:24:51.129Z,8.20
2023-03-15T05:27:35.917Z,7.90
2023-03-15T05:30:16.411Z,8.20
2023-03-15T05:33:06.760Z,8.10
2023-03-15T05:35:44.981Z,8.00
2023-03-15T05:38:18.740Z,9.10
2023-03-15T05:43:50.901Z,9.10
2023-03-15T05:46:55.223Z,7.80
2023-03-15T05:49:46.501Z,7.90
2023-03-15T05:52:31.181Z,8.10
2023-03-15T05:55:23.468Z,8.40
2023-03-15T05:58:15.648Z,8.10
2023-03-15T06:00:53.981Z,8.30
2023-03-15T06:03:32.378Z,8.40
2023-03-15T06:06:05.249Z,9.00
2023-03-15T06:08:37.598Z,8.50
2023-03-15T06:11:06.614Z,8.20
2023-03-15T06:13:36.245Z,8.60
2023-03-15T06:16:10.296Z,8.60
2023-03-15T06:18:42.946Z,8.80
2023-03-15T06:21:10.956Z,8.90
2023-03-15T06:23:41.909Z,10.00
2023-03-15T06:26:11.338Z,9.50
2023-03-15T06:28:39.219Z,8.90
2023-03-15T06:31:08.438Z,9.90
2023-03-15T06:33:41.225Z,9.30
2023-03-15T06:36:11.017Z,8.30
2023-03-15T06:38:40.041Z,10.30
2023-03-15T06:41:08.752Z,9.10
2023-03-15T06:43:41.750Z,10.20
2023-03-15T06:46:09.768Z,10.10
2023-03-15T06:48:40.167Z,9.80
2023-03-15T06:51:09.425Z,9.70
2023-03-15T06:53:38.612Z,9.50
2023-03-15T06:56:07.366Z,9.10
2023-03-15T06:58:36.054Z,9.40
2023-03-15T07:01:04.159Z,8.80
2023-03-15T07:03:35.469Z,7.70
2023-03-15T07:06:03.521Z,7.80
2023-03-15T07:08:31.662Z,8.00
2023-03-15T07:10:59.668Z,7.50
2023-03-15T07:13:27.694Z,8.30
2023-03-15T07:15:58.718Z,8.10
2023-03-15T07:18:27.265Z,8.20
2023-03-15T07:20:58.801Z,7.80
2023-03-15T07:23:26.848Z,8.60
2023-03-15T07:25:55.691Z,8.20
2023-03-15T07:28:31.067Z,7.40
2023-03-15T07:31:03.215Z,7.90
2023-03-15T07:33:32.432Z,7.70
2023-03-15T07:36:06.429Z,7.70
2023-03-15T07:38:34.958Z,6.50
2023-03-15T07:41:04.184Z,7.20
2023-03-15T07:43:32.334Z,7.20
2023-03-15T07:46:09.169Z,7.20
2023-03-15T07:48:39.110Z,7.50
2023-03-15T07:51:07.670Z,7.70
2023-03-15T07:53:35.716Z,7.10
2023-03-15T07:56:04.380Z,8.40
2023-03-15T07:58:32.316Z,8.70
2023-03-15T08:01:00.699Z,7.00
2023-03-15T08:03:32.136Z,7.60
2023-03-15T08:06:00.663Z,9.10
2023-03-15T08:08:32.818Z,7.50
2023-03-15T08:11:01.873Z,7.50
2023-03-15T08:13:35.913Z,6.70
2023-03-15T08:16:09.649Z,6.20
2023-03-15T08:18:46.696Z,7.30
2023-03-15T08:21:15.845Z,7.60
2023-03-15T08:23:44.123Z,7.60
2023-03-15T08:26:16.850Z,6.70
2023-03-15T08:28:44.848Z,7.90
2023-03-15T08:31:14.212Z,8.00
2023-03-15T08:33:42.217Z,8.20
2023-03-15T08:36:12.390Z,7.90
2023-03-15T08:38:41.927Z,7.70
2023-03-15T08:41:10.779Z,7.30
2023-03-15T08:43:43.035Z,7.50
2023-03-15T08:46:11.205Z,7.10
2023-03-15T08:48:39.357Z,7.30
2023-03-15T08:51:09.151Z,7.70
2023-03-15T08:53:38.544Z,8.00
2023-03-15T08:56:13.372Z,8.40
2023-03-15T08:58:41.827Z,8.00
2023-03-15T09:01:13.188Z,7.80
2023-03-15T09:03:42.667Z,8.70
2023-03-15T09:06:10.700Z,8.60
2023-03-15T09:08:38.744Z,8.70
2023-03-15T09:11:07.449Z,9.20
2023-03-15T09:13:35.926Z,7.90
2023-03-15T09:16:08.043Z,7.60
2023-03-15T09:18:36.519Z,7.00
2023-03-15T09:21:05.292Z,8.50
2023-03-15T09:23:37.582Z,7.80
2023-03-15T09:26:05.816Z,8.50
2023-03-15T09:28:34.216Z,7.60
2023-03-15T09:31:06.672Z,7.20
2023-03-15T09:33:35.098Z,7.70
2023-03-15T09:36:03.276Z,6.90
2023-03-15T09:38:34.134Z,7.70
2023-03-15T09:41:03.979Z,7.10
2023-03-15T09:43:32.716Z,7.60
2023-03-15T09:46:16.371Z,7.40
2023-03-15T09:48:51.139Z,8.00
2023-03-15T09:51:36.316Z,7.30
2023-03-15T09:54:13.688Z,8.40
2023-03-15T09:56:42.206Z,8.80
2023-03-15T09:59:10.287Z,8.50
2023-03-15T10:01:40.952Z,9.10
2023-03-15T10:04:26.122Z,8.90
2023-03-15T10:06:55.336Z,8.50
2023-03-15T10:09:24.410Z,8.70
2023-03-15T10:12:11.907Z,8.20
2023-03-15T10:14:55.453Z,8.80
2023-03-15T10:17:35.366Z,8.30
2023-03-15T10:20:13.678Z,8.00
2023-03-15T10:22:43.011Z,8.40
2023-03-15T10:25:11.718Z,8.20
2023-03-15T10:27:52.297Z,9.00
2023-03-15T10:30:38.979Z,8.90
2023-03-15T10:33:26.372Z,7.90
2023-03-15T10:36:01.274Z,8.10
2023-03-15T10:38:36.445Z,7.50
2023-03-15T10:41:05.528Z,8.30
2023-03-15T10:43:38.151Z,8.00
2023-03-15T10:46:07.289Z,7.80
2023-03-15T10:48:39.675Z,8.00
2023-03-15T10:51:16.478Z,7.90
2023-03-15T10:54:00.115Z,7.40
2023-03-15T10:56:35.190Z,7.00
2023-03-15T10:59:12.410Z,7.30
2023-03-15T11:05:04.361Z,7.20
2023-03-15T11:07:34.845Z,6.80
2023-03-15T11:10:04.262Z,6.50
2023-03-15T11:12:35.218Z,6.90
2023-03-15T11:15:04.335Z,7.50
2023-03-15T11:17:33.635Z,6.20
2023-03-15T11:20:16.452Z,7.40
2023-03-15T11:22:50.836Z,6.40
2023-03-15T11:25:23.356Z,6.30
2023-03-15T11:27:53.825Z,6.40
2023-03-15T11:30:29.673Z,6.10
2023-03-15T11:33:03.864Z,6.40
2023-03-15T11:35:35.644Z,6.90
2023-03-15T11:38:15.335Z,6.90
2023-03-15T11:40:46.021Z,6.20
2023-03-15T11:43:18.135Z,6.10
2023-03-15T11:46:05.119Z,6.60
2023-03-15T11:48:49.060Z,5.90
2023-03-15T11:51:17.004Z,7.00
2023-03-15T11:54:04.194Z,7.30
2023-03-15T11:57:03.176Z,6.60
2023-03-15T11:59:36.854Z,7.00
2023-03-15T12:02:10.982Z,6.60
2023-03-15T12:04:39.149Z,6.50
2023-03-15T12:07:16.176Z,6.60
2023-03-15T12:09:49.289Z,6.50
2023-03-15T12:12:26.992Z,6.20
2023-03-15T12:15:25.753Z,7.00
2023-03-15T12:18:00.167Z,6.40
2023-03-15T12:20:28.337Z,7.50
2023-03-15T12:23:05.492Z,6.60
2023-03-15T12:25:45.627Z,6.90
2023-03-15T12:28:26.654Z,7.40
2023-03-15T12:30:56.640Z,7.30
2023-03-15T12:33:24.958Z,7.60
2023-03-15T12:36:01.481Z,6.90
2023-03-15T12:38:35.683Z,6.60
2023-03-15T12:41:06.875Z,6.40
2023-03-15T12:43:44.394Z,6.70
2023-03-15T12:46:45.577Z,7.00
2023-03-15T12:49:28.442Z,6.20
2023-03-15T12:52:02.405Z,6.60
2023-03-15T12:54:37.479Z,6.30
2023-03-15T12:57:05.568Z,6.10
2023-03-15T12:59:33.800Z,6.40
2023-03-15T13:02:02.679Z,6.80
2023-03-15T13:04:34.392Z,5.90
2023-03-15T13:07:04.630Z,6.70
2023-03-15T13:09:32.604Z,6.30
2023-03-15T13:12:21.078Z,6.30
2023-03-15T13:14:55.419Z,6.90
2023-03-15T13:17:31.806Z,5.80
2023-03-15T13:20:21.632Z,6.80
2023-03-15T13:22:56.438Z,7.20
2023-03-15T13:25:26.628Z,6.20
2023-03-15T13:28:07.722Z,5.80
2023-03-15T13:30:37.988Z,6.00
2023-03-15T13:33:22.434Z,5.90
2023-03-15T13:35:54.108Z,5.70
2023-03-15T13:38:24.482Z,5.60
2023-03-15T13:40:57.708Z,6.20
2023-03-15T13:43:26.948Z,6.20
2023-03-15T13:45:58.218Z,6.40
2023-03-15T13:48:26.901Z,7.50
2023-03-15T13:50:55.736Z,6.20
2023-03-15T13:53:35.579Z,5.00
2023-03-15T13:56:08.441Z,6.50
2023-03-15T13:58:37.394Z,7.40
2023-03-15T14:01:07.251Z,7.40
2023-03-15T14:03:35.771Z,5.70
2023-03-15T14:06:06.856Z,5.10
2023-03-15T14:08:36.619Z,6.50
2023-03-15T14:11:12.402Z,6.70
2023-03-15T14:13:51.743Z,5.50
2023-03-15T14:16:49.886Z,6.60
2023-03-15T14:19:25.601Z,7.90
2023-03-15T14:21:57.120Z,8.50
2023-03-15T14:24:28.974Z,7.90
2023-03-15T14:26:58.496Z,8.20
2023-03-15T14:29:33.320Z,7.80
2023-03-15T14:32:09.084Z,7.90
2023-03-15T14:34:45.072Z,7.70
2023-03-15T14:37:34.378Z,9.80
2023-03-15T14:40:21.256Z,9.70
2023-03-15T14:42:52.722Z,9.50
2023-03-15T14:45:22.370Z,10.40
2023-03-15T14:47:57.202Z,8.80
2023-03-15T14:50:28.336Z,8.90
2023-03-15T14:52:56.998Z,9.00
2023-03-15T14:55:30.110Z,9.30
2023-03-15T14:57:58.162Z,8.20
2023-03-15T15:00:27.138Z,8.90
2023-03-15T15:02:56.605Z,9.10
2023-03-15T15:05:25.986Z,9.70
2023-03-15T15:07:57.720Z,9.00
2023-03-15T15:10:26.612Z,10.50
2023-03-15T15:13:06.106Z,9.80
2023-03-15T15:15:54.005Z,9.30
2023-03-15T15:18:24.165Z,9.40
2023-03-15T15:21:00.832Z,9.10
2023-03-15T15:23:54.878Z,9.70
2023-03-15T15:26:27.431Z,9.40
2023-03-15T15:28:57.639Z,10.70
2023-03-15T15:31:27.369Z,11.10
2023-03-15T15:34:03.823Z,10.50
2023-03-15T15:36:33.964Z,9.50
2023-03-15T15:39:06.514Z,9.70
2023-03-15T15:41:37.289Z,10.00
2023-03-15T15:44:27.109Z,9.50
2023-03-15T15:46:55.861Z,10.10
2023-03-15T15:49:24.624Z,10.50
2023-03-15T15:51:54.679Z,11.30
2023-03-15T15:54:31.821Z,12.60
2023-03-15T15:57:02.702Z,12.60
2023-03-15T15:59:31.168Z,13.30
2023-03-15T16:02:02.568Z,12.60
2023-03-15T16:04:36.606Z,13.90
2023-03-15T16:07:05.561Z,13.00
2023-03-15T16:09:37.627Z,12.70
2023-03-15T16:12:15.405Z,13.40
2023-03-15T16:14:46.883Z,12.10
2023-03-15T16:17:18.755Z,13.20
2023-03-15T16:19:49.640Z,13.50
2023-03-15T16:22:18.372Z,12.00
2023-03-15T16:24:54.870Z,11.80
2023-03-15T16:30:08.439Z,11.90
2023-03-15T16:32:44.441Z,11.70
2023-03-15T16:35:17.891Z,12.10
2023-03-15T16:37:46.935Z,14.70
2023-03-15T16:40:24.609Z,13.30
2023-03-15T16:42:56.219Z,11.10
2023-03-15T16:45:32.003Z,10.90
2023-03-15T16:48:03.292Z,11.30
2023-03-15T16:50:35.071Z,11.60
2023-03-15T16:53:05.841Z,13.80
2023-03-15T16:55:33.982Z,14.00
2023-03-15T16:58:02.949Z,13.20
2023-03-15T17:00:32.504Z,12.80
2023-03-15T17:03:01.721Z,11.10
2023-03-15T17:05:31.876Z,11.30
2023-03-15T17:08:02.810Z,14.00
2023-03-15T17:10:31.927Z,13.10
2023-03-15T17:13:02.891Z,13.30
2023-03-15T17:15:31.314Z,15.30
2023-03-15T17:18:00.498Z,13.90
2023-03-15T17:20:30.803Z,14.40
2023-03-15T17:23:04.067Z,15.10
2023-03-15T17:25:33.862Z,12.50
2023-03-15T17:28:03.083Z,13.10
2023-03-15T17:30:37.069Z,13.80
2023-03-15T17:33:07.772Z,15.50
2023-03-15T17:35:37.883Z,17.50
2023-03-15T17:38:06.624Z,29.80
2023-03-15T17:40:35.660Z,49.00
2023-03-15T17:43:04.601Z,51.90
2023-03-15T17:45:34.510Z,39.10
2023-03-15T17:48:05.540Z,41.70
2023-03-15T17:50:33.957Z,41.00
2023-03-15T17:53:03.691Z,44.40
2023-03-15T17:55:35.140Z,44.00
2023-03-15T17:58:19.933Z,43.20
2023-03-15T18:00:50.017Z,26.70
2023-03-15T18:03:18.143Z,26.40
2023-03-15T18:05:46.320Z,21.60
2023-03-15T18:08:22.724Z,18.90
2023-03-15T18:10:50.951Z,19.00
2023-03-15T18:13:22.593Z,17.70
2023-03-15T18:15:59.785Z,19.90
2023-03-15T18:18:33.997Z,18.50
2023-03-15T18:21:04.309Z,18.70
2023-03-15T18:23:37.068Z,18.40
2023-03-15T18:26:05.354Z,26.10
2023-03-15T18:28:37.007Z,38.70
2023-03-15T18:31:12.779Z,34.20
2023-03-15T18:33:41.061Z,27.60
2023-03-15T18:36:20.838Z,45.70
2023-03-15T18:38:49.255Z,26.60
2023-03-15T18:41:21.207Z,21.80
2023-03-15T18:43:53.910Z,21.30
2023-03-15T18:46:24.713Z,22.00
2023-03-15T18:49:02.030Z,19.20
2023-03-15T18:51:35.417Z,19.80
2023-03-15T18:54:10.155Z,18.20
2023-03-15T18:56:44.886Z,19.50
2023-03-15T19:01:49.506Z,21.80
2023-03-15T19:04:21.439Z,23.50
2023-03-15T19:06:50.849Z,23.70
2023-03-15T19:09:23.976Z,22.80
2023-03-15T19:11:52.281Z,20.90
2023-03-15T19:14:23.956Z,20.70
2023-03-15T19:16:53.890Z,19.20
2023-03-15T19:19:29.457Z,17.60
2023-03-15T19:22:06.401Z,18.70
2023-03-15T19:24:38.401Z,22.10
2023-03-15T19:27:06.441Z,27.40
2023-03-15T19:29:34.612Z,31.00
2023-03-15T19:32:03.793Z,29.80
2023-03-15T19:34:32.933Z,32.10
2023-03-15T19:37:01.907Z,38.00
2023-03-15T19:39:30.007Z,41.80
2023-03-15T19:41:58.099Z,41.70
2023-03-15T19:44:27.378Z,37.20
2023-03-15T19:46:58.453Z,30.30
2023-03-15T19:49:26.897Z,26.30
2023-03-15T19:51:55.369Z,22.10
2023-03-15T19:54:23.716Z,20.00
2023-03-15T19:56:52.175Z,21.20
2023-03-15T19:59:20.184Z,23.20
2023-03-15T20:01:49.456Z,26.90
2023-03-15T20:04:17.615Z,28.90
2023-03-15T20:06:46.030Z,33.60
2023-03-15T20:09:14.290Z,35.80
2023-03-15T20:11:49.856Z,36.20
2023-03-15T20:14:20.629Z,36.00
2023-03-15T20:16:48.727Z,32.20
2023-03-15T20:19:23.756Z,34.60
2023-03-15T20:21:52.570Z,30.20
2023-03-15T20:24:20.523Z,30.10
2023-03-15T20:26:51.826Z,28.10
2023-03-15T20:29:19.853Z,28.50
2023-03-15T20:31:48.651Z,25.20
2023-03-15T20:34:17.087Z,22.60
2023-03-15T20:36:45.417Z,21.10
2023-03-15T20:39:13.389Z,19.30
2023-03-15T20:41:42.703Z,19.80
2023-03-15T20:44:10.755Z,20.70
2023-03-15T20:46:40.105Z,23.10
2023-03-15T20:49:08.540Z,27.50
2023-03-15T20:51:38.874Z,30.50
2023-03-15T20:54:06.826Z,31.10
2023-03-15T20:56:36.900Z,33.50
2023-03-15T20:59:04.948Z,30.70
2023-03-15T21:01:39.572Z,31.30
2023-03-15T21:04:07.593Z,27.30
2023-03-15T21:06:35.627Z,30.00
2023-03-15T21:09:06.481Z,28.50
2023-03-15T21:11:34.499Z,25.40
2023-03-15T21:14:02.799Z,28.60
2023-03-15T21:16:33.414Z,25.10
2023-03-15T21:19:01.667Z,25.20
2023-03-15T21:21:32.997Z,22.50
2023-03-15T21:24:02.311Z,22.40
2023-03-15T21:26:30.550Z,22.60
2023-03-15T21:29:05.590Z,21.30
2023-03-15T21:31:36.663Z,20.80
2023-03-15T21:34:05.223Z,21.10
2023-03-15T21:36:34.137Z,23.00
2023-03-15T21:39:02.154Z,24.20
2023-03-15T21:41:35.197Z,29.00
2023-03-15T21:44:04.990Z,25.80
2023-03-15T21:46:33.922Z,24.90
2023-03-15T21:49:10.574Z,24.40
2023-03-15T21:51:38.945Z,20.90
2023-03-15T21:54:09.133Z,22.80
2023-03-15T21:56:39.787Z,20.30
2023-03-15T21:59:10.398Z,21.70
2023-03-15T22:01:43.375Z,19.40
2023-03-15T22:04:11.628Z,22.70
2023-03-15T22:06:39.624Z,22.60
2023-03-15T22:09:11.230Z,20.90
2023-03-15T22:11:42.260Z,21.50
2023-03-15T22:14:13.341Z,20.70
2023-03-15T22:16:43.144Z,20.60
2023-03-15T22:19:18.185Z,20.30
2023-03-15T22:21:48.992Z,21.50
2023-03-15T22:24:17.228Z,22.10
2023-03-15T22:26:48.594Z,22.10
2023-03-15T22:29:16.577Z,20.70
2023-03-15T22:31:44.592Z,20.10
2023-03-15T22:34:13.170Z,20.80
2023-03-15T22:36:42.939Z,21.50
2023-03-15T22:39:14.506Z,20.00
2023-03-15T22:41:45.661Z,19.30
2023-03-15T22:44:20.600Z,18.80
2023-03-15T22:46:52.411Z,19.80
2023-03-15T22:49:26.308Z,21.50
2023-03-15T22:51:58.221Z,20.40
2023-03-15T22:54:26.256Z,21.60
2023-03-15T22:56:56.178Z,23.10
2023-03-15T22:59:29.129Z,22.80
2023-03-15T23:02:05.438Z,20.40
2023-03-15T23:04:38.833Z,21.70
2023-03-15T23:07:09.717Z,21.20
2023-03-15T23:09:43.173Z,21.10
2023-03-15T23:12:18.125Z,21.80
2023-03-15T23:17:34.962Z,21.90
2023-03-15T23:20:09.115Z,21.80
2023-03-15T23:22:37.639Z,21.40
2023-03-15T23:25:05.916Z,22.70
2023-03-15T23:27:33.864Z,21.30
2023-03-15T23:30:04.809Z,20.50
2023-03-15T23:32:36.559Z,19.90
2023-03-15T23:35:11.643Z,21.40
2023-03-15T23:37:41.138Z,19.40
2023-03-15T23:40:15.269Z,20.20
2023-03-15T23:42:45.153Z,20.60
2023-03-15T23:45:15.354Z,20.70
2023-03-15T23:47:46.927Z,22.80
2023-03-15T23:50:15.871Z,20.90
2023-03-15T23:52:43.847Z,22.10
2023-03-15T23:55:12.568Z,21.50
2023-03-15T23:57:41.491Z,21.80
